Time;durP1;ratioP1;P1;durP2;ratioP2;P2;SDS_P1;SDS_P2;PMS_P1;PMS_P2;Temp;Humidity;BMP_temperature;BMP_pressure;BME280_temperature;BME280_humidity;BME280_pressure;Samples;Min_cycle;Max_cycle;Signal;HPM_P1;HPM_P2
2021/05/05 00:00:57;;;;;;;0.70;0.70;;;;;;;7.77;100.00;100544.59;1849435;77;26269;-79
2021/05/05 00:03:27;;;;;;;0.70;0.60;;;;;;;7.82;100.00;100545.70;1849441;77;26247;-79
2021/05/05 00:05:57;;;;;;;2.03;0.77;;;;;;;7.76;100.00;100554.53;1843402;78;26686;-79
2021/05/05 00:08:27;;;;;;;1.50;1.07;;;;;;;7.73;100.00;100555.08;1833790;77;26258;-78
2021/05/05 00:10:58;;;;;;;2.97;0.70;;;;;;;7.76;100.00;100554.53;1843736;78;26148;-77
2021/05/05 00:13:28;;;;;;;1.73;0.80;;;;;;;7.67;100.00;100557.55;1848218;77;26281;-77
2021/05/05 00:15:58;;;;;;;1.07;0.80;;;;;;;7.66;100.00;100555.87;1849529;77;26379;-78
2021/05/05 00:18:28;;;;;;;1.20;0.87;;;;;;;7.64;100.00;100563.08;1849505;77;26661;-78
2021/05/05 00:20:58;;;;;;;1.60;0.70;;;;;;;7.66;100.00;100558.64;1849425;77;26653;-78
2021/05/05 00:23:28;;;;;;;0.93;0.80;;;;;;;7.53;100.00;100559.99;1849447;77;26202;-79
2021/05/05 00:25:58;;;;;;;1.33;0.70;;;;;;;7.54;100.00;100558.90;1849434;77;26284;-78
2021/05/05 00:28:28;;;;;;;1.47;1.00;;;;;;;7.49;100.00;100567.17;1849515;77;26211;-78
2021/05/05 00:30:57;;;;;;;1.07;0.80;;;;;;;7.41;100.00;100564.94;1849547;77;26288;-79
2021/05/05 00:33:27;;;;;;;0.93;0.60;;;;;;;7.39;100.00;100568.54;1849492;77;26231;-79
2021/05/05 00:35:57;;;;;;;3.30;0.80;;;;;;;7.38;100.00;100575.16;1849635;77;26206;-79
2021/05/05 00:38:27;;;;;;;1.17;0.80;;;;;;;7.39;100.00;100566.32;1849599;77;26723;-79
2021/05/05 00:40:57;;;;;;;2.30;0.80;;;;;;;7.31;100.00;100566.30;1849642;77;26211;-79
2021/05/05 00:43:27;;;;;;;1.63;1.00;;;;;;;7.28;100.00;100564.05;1849599;77;26311;-79
2021/05/05 00:45:56;;;;;;;1.43;1.00;;;;;;;7.29;100.00;100571.25;1849538;77;26672;-79
2021/05/05 00:48:26;;;;;;;2.63;0.80;;;;;;;7.30;100.00;100565.47;1849540;77;26719;-78
2021/05/05 00:50:57;;;;;;;4.63;0.97;;;;;;;7.27;100.00;100554.94;1849549;77;26289;-78
2021/05/05 00:53:27;;;;;;;2.13;0.90;;;;;;;7.24;100.00;100556.03;1849584;77;26226;-78
2021/05/05 00:55:56;;;;;;;0.90;0.70;;;;;;;7.16;100.00;100556.56;1849601;77;26214;-78
2021/05/05 00:58:27;;;;;;;2.20;1.23;;;;;;;7.16;100.00;100558.77;1849543;77;26284;-79
2021/05/05 01:00:57;;;;;;;1.60;0.87;;;;;;;7.10;100.00;100565.36;1849499;77;26218;-79
2021/05/05 01:03:27;;;;;;;2.07;1.00;;;;;;;7.20;100.00;100565.97;1849468;77;26312;-79
2021/05/05 01:05:58;;;;;;;2.67;0.73;;;;;;;7.12;100.00;100562.34;1849504;77;26207;-79
2021/05/05 01:08:27;;;;;;;2.13;0.80;;;;;;;7.09;100.00;100562.89;1847195;77;26191;-79
2021/05/05 01:10:58;;;;;;;1.30;0.90;;;;;;;7.14;100.00;100559.61;1836346;77;26303;-79
2021/05/05 01:13:28;;;;;;;2.23;1.10;;;;;;;7.14;100.00;100565.13;1849507;77;26218;-80
2021/05/05 01:15:58;;;;;;;0.80;0.70;;;;;;;7.11;100.00;100571.72;1849587;77;26215;-79
2021/05/05 01:18:28;;;;;;;1.40;0.77;;;;;;;6.99;100.00;100566.42;1849606;77;26203;-80
2021/05/05 01:20:59;;;;;;;3.30;1.37;;;;;;;7.03;100.00;100563.41;1849592;77;26226;-78
2021/05/05 01:23:29;;;;;;;2.20;0.90;;;;;;;6.94;100.00;100567.77;1849591;77;26250;-78
2021/05/05 01:25:59;;;;;;;1.53;0.80;;;;;;;7.04;100.00;100571.14;1849477;77;26219;-78
2021/05/05 01:28:31;;;;;;;1.53;0.70;;;;;;;6.97;100.00;100571.95;1849503;77;26222;-79
2021/05/05 01:31:01;;;;;;;0.83;0.70;;;;;;;6.77;100.00;100576.23;1848772;77;26210;-78
2021/05/05 01:33:31;;;;;;;3.40;1.07;;;;;;;6.79;100.00;100584.27;1849462;77;26653;-78
2021/05/05 01:36:00;;;;;;;2.40;0.70;;;;;;;6.79;100.00;100580.13;1849539;77;26215;-78
2021/05/05 01:38:30;;;;;;;1.73;1.10;;;;;;;6.71;100.00;100584.77;1849539;77;26203;-78
2021/05/05 01:41:01;;;;;;;2.40;1.00;;;;;;;6.67;100.00;100583.64;1849503;77;26696;-78
2021/05/05 01:43:31;;;;;;;1.47;0.80;;;;;;;6.64;100.00;100583.61;1849538;77;26214;-78
2021/05/05 01:46:02;;;;;;;2.07;1.17;;;;;;;6.64;100.00;100575.87;1849588;77;26210;-79
2021/05/05 01:48:32;;;;;;;2.70;0.90;;;;;;;6.64;100.00;100586.91;1849549;77;26288;-79
2021/05/05 01:51:02;;;;;;;3.07;1.07;;;;;;;6.67;100.00;100575.36;1849584;77;26210;-79
2021/05/05 01:53:31;;;;;;;3.77;1.00;;;;;;;6.58;100.00;100576.41;1849449;77;26219;-78
2021/05/05 01:56:01;;;;;;;2.53;0.90;;;;;;;6.54;100.00;100581.34;1849688;77;26218;-78
2021/05/05 01:58:33;;;;;;;2.60;1.10;;;;;;;6.47;100.00;100582.09;1849565;77;26214;-79
2021/05/05 02:01:04;;;;;;;2.50;1.10;;;;;;;6.49;100.00;100579.92;1849467;77;26198;-79
2021/05/05 02:03:33;;;;;;;1.13;0.87;;;;;;;6.47;100.00;100581.55;1849456;77;26246;-79
2021/05/05 02:06:03;;;;;;;1.50;0.93;;;;;;;6.42;100.00;100584.84;1849468;77;26641;-79
2021/05/05 02:08:33;;;;;;;2.80;0.97;;;;;;;6.38;100.00;100580.38;1849488;77;26195;-78
2021/05/05 02:11:04;;;;;;;3.90;1.13;;;;;;;6.36;100.00;100588.10;1830916;77;26332;-79
2021/05/05 02:13:35;;;;;;;3.80;0.87;;;;;;;6.32;100.00;100589.18;1844671;78;26164;-79
2021/05/05 02:16:05;;;;;;;1.33;0.77;;;;;;;6.42;100.00;100590.36;1844919;78;26229;-78
2021/05/05 02:18:35;;;;;;;3.40;1.33;;;;;;;6.33;100.00;100593.58;1844751;78;26168;-78
2021/05/05 02:21:06;;;;;;;2.83;1.27;;;;;;;6.27;100.00;100588.30;1848512;77;26268;-78
2021/05/05 02:23:36;;;;;;;1.20;0.83;;;;;;;6.27;100.00;100593.81;1849416;77;26353;-80
2021/05/05 02:26:06;;;;;;;3.90;1.10;;;;;;;6.24;100.00;100597.95;1849452;77;26206;-79
2021/05/05 02:28:36;;;;;;;5.43;1.30;;;;;;;6.31;100.00;100595.79;1849490;77;26268;-78
2021/05/05 02:31:06;;;;;;;3.33;1.47;;;;;;;6.24;100.00;100604.84;1849552;77;26645;-80
2021/05/05 02:33:36;;;;;;;4.57;1.20;;;;;;;6.31;100.00;100619.23;1849547;77;26292;-77
2021/05/05 02:36:07;;;;;;;4.23;1.03;;;;;;;6.28;100.00;100622.52;1849439;77;26198;-78
2021/05/05 02:38:36;;;;;;;3.00;1.17;;;;;;;6.14;100.00;100630.94;1849525;77;26264;-78
2021/05/05 02:41:07;;;;;;;1.17;1.07;;;;;;;6.13;100.00;100635.32;1849516;77;26215;-78
2021/05/05 02:43:37;;;;;;;3.73;1.30;;;;;;;6.00;100.00;100633.82;1849433;77;26656;-78
2021/05/05 02:46:07;;;;;;;2.53;1.33;;;;;;;5.97;100.00;100637.11;1849454;77;26273;-78
2021/05/05 02:48:37;;;;;;;2.97;1.27;;;;;;;6.12;100.00;100641.95;1849453;77;26277;-77
2021/05/05 02:51:07;;;;;;;2.83;1.20;;;;;;;6.10;100.00;100648.27;1849474;77;26666;-78
2021/05/05 02:53:37;;;;;;;2.20;1.00;;;;;;;6.05;100.00;100649.04;1849430;77;26690;-78
2021/05/05 02:56:06;;;;;;;2.13;1.23;;;;;;;6.28;100.00;100647.89;1849359;77;26291;-78
2021/05/05 02:58:36;;;;;;;2.33;1.30;;;;;;;6.24;100.00;100644.83;1849418;77;26218;-78
2021/05/05 03:01:06;;;;;;;1.70;0.93;;;;;;;6.22;100.00;100642.03;1849545;77;26218;-78
2021/05/05 03:03:37;;;;;;;4.50;1.70;;;;;;;6.21;100.00;100643.95;1849486;77;26670;-78
2021/05/05 03:06:06;;;;;;;1.73;1.10;;;;;;;6.20;100.00;100651.97;1849516;77;26290;-79
2021/05/05 03:08:36;;;;;;;4.00;1.57;;;;;;;6.29;100.00;100650.94;1849422;77;26268;-79
2021/05/05 03:11:06;;;;;;;3.40;1.43;;;;;;;6.12;100.00;100655.73;1832840;77;26351;-79
2021/05/05 03:13:36;;;;;;;1.80;1.47;;;;;;;6.16;100.00;100654.13;1846057;77;26317;-78
2021/05/05 03:16:29;;;;;;;4.37;1.73;;;;;;;6.21;100.00;100653.60;1971845;73;32864;-73
2021/05/05 03:18:59;;;;;;;2.87;1.63;;;;;;;6.19;100.00;100657.19;1934630;74;26319;-73
2021/05/05 03:21:30;;;;;;;2.83;1.27;;;;;;;6.25;100.00;100653.36;1934706;74;26173;-73
2021/05/05 03:24:00;;;;;;;2.53;1.10;;;;;;;6.18;100.00;100658.27;1934645;74;26647;-73
2021/05/05 03:26:29;;;;;;;2.33;1.53;;;;;;;6.07;100.00;100656.52;1934610;74;26646;-73
2021/05/05 03:28:59;;;;;;;2.20;1.40;;;;;;;6.02;100.00;100656.46;1934618;74;26197;-73
2021/05/05 03:31:30;;;;;;;3.53;1.50;;;;;;;6.16;100.00;100654.13;1934733;74;26199;-73
2021/05/05 03:34:00;;;;;;;4.03;1.70;;;;;;;6.10;100.00;100655.16;1934569;74;26604;-74
2021/05/05 03:36:30;;;;;;;3.63;1.70;;;;;;;6.13;100.00;100659.59;1934598;74;26181;-73
2021/05/05 03:39:01;;;;;;;2.57;1.17;;;;;;;6.14;100.00;100667.33;1934694;74;26622;-73
2021/05/05 03:41:30;;;;;;;3.67;1.70;;;;;;;6.17;100.00;100664.03;1934646;74;26273;-73
2021/05/05 03:44:01;;;;;;;4.23;1.37;;;;;;;6.17;100.00;100666.80;1934658;74;26185;-73
2021/05/05 03:46:30;;;;;;;1.73;1.20;;;;;;;6.16;100.00;100670.67;1934657;74;26690;-73
2021/05/05 03:49:01;;;;;;;3.23;1.40;;;;;;;6.10;100.00;100665.64;1934649;74;26281;-73
2021/05/05 03:51:30;;;;;;;4.63;1.57;;;;;;;6.11;100.00;100667.31;1934714;74;26188;-73
2021/05/05 03:54:00;;;;;;;3.37;1.60;;;;;;;6.08;100.00;100669.19;1941482;73;26244;-73
2021/05/05 03:56:30;;;;;;;2.50;1.50;;;;;;;6.03;100.00;100671.92;1952509;73;26190;-73
2021/05/05 03:59:00;;;;;;;3.63;1.63;;;;;;;6.08;100.00;100680.76;1952469;73;26175;-74
2021/05/05 04:01:29;;;;;;;6.23;1.60;;;;;;;6.03;100.00;100679.36;1874357;73;930488;-74
2021/05/05 04:03:59;;;;;;;5.20;1.43;;;;;;;6.09;100.00;100680.52;1837400;78;26381;-73
2021/05/05 04:06:32;;;;;;;3.27;1.80;;;;;;;5.97;100.00;100678.45;1837471;78;26206;-73
2021/05/05 04:09:01;;;;;;;2.40;1.43;;;;;;;5.87;100.00;100676.95;1807227;79;26205;-73
2021/05/05 04:11:31;;;;;;;4.47;1.70;;;;;;;5.89;100.00;100678.38;1807182;79;26290;-73
2021/05/05 04:14:02;;;;;;;3.50;1.60;;;;;;;5.97;100.00;100680.38;1807228;79;26228;-73
2021/05/05 04:16:32;;;;;;;2.53;1.47;;;;;;;6.02;100.00;100684.57;1810383;79;26257;-73
2021/05/05 04:19:02;;;;;;;3.43;1.53;;;;;;;6.00;100.00;100686.74;1810832;79;26672;-73
2021/05/05 04:21:33;;;;;;;3.83;1.60;;;;;;;5.83;100.00;100686.26;1811017;79;26206;-73
2021/05/05 04:24:04;;;;;;;3.33;1.43;;;;;;;5.66;100.00;100690.17;1810891;79;26213;-73
2021/05/05 04:26:34;;;;;;;3.27;1.53;;;;;;;5.72;100.00;100694.67;1810492;79;26229;-73
2021/05/05 04:29:04;;;;;;;5.53;1.50;;;;;;;5.70;100.00;100699.05;1810226;79;26268;-73
2021/05/05 04:31:34;;;;;;;3.40;2.03;;;;;;;5.63;100.00;100700.34;1810250;79;26212;-73
2021/05/05 04:34:04;;;;;;;3.77;1.70;;;;;;;5.77;100.00;100703.01;1810263;79;26210;-73
2021/05/05 04:36:34;;;;;;;6.03;1.73;;;;;;;5.75;100.00;100701.04;1810291;79;26237;-73
2021/05/05 04:39:05;;;;;;;4.13;1.10;;;;;;;5.70;100.00;100707.86;1810338;79;26241;-73
2021/05/05 04:41:35;;;;;;;3.10;1.50;;;;;;;5.64;100.00;100713.04;1810234;79;26213;-73
2021/05/05 04:44:06;;;;;;;3.43;1.67;;;;;;;5.69;100.00;100707.02;1810308;79;26659;-73
2021/05/05 04:46:35;;;;;;;2.73;1.40;;;;;;;5.68;100.00;100718.33;1810235;79;26221;-73
2021/05/05 04:49:05;;;;;;;2.33;1.37;;;;;;;5.70;100.00;100722.48;1810218;79;26218;-73
2021/05/05 04:51:37;;;;;;;3.93;1.63;;;;;;;5.74;100.00;100720.88;1810266;79;26222;-74
2021/05/05 04:54:09;;;;;;;3.50;1.50;;;;;;;5.68;100.00;100734.86;1810314;79;26632;-74
2021/05/05 04:56:38;;;;;;;4.00;1.63;;;;;;;5.73;100.00;100739.06;1810302;79;26280;-73
2021/05/05 04:59:08;;;;;;;2.87;1.50;;;;;;;5.79;100.00;100733.34;1810337;79;26687;-73
2021/05/05 05:01:38;;;;;;;2.40;1.53;;;;;;;5.74;100.00;100727.77;1810321;79;26292;-73
2021/05/05 05:04:08;;;;;;;5.83;1.40;;;;;;;5.73;100.00;100737.14;1810216;79;26645;-73
2021/05/05 05:06:38;;;;;;;3.63;1.67;;;;;;;5.66;100.00;100750.26;1810177;79;26726;-74
2021/05/05 05:09:08;;;;;;;3.53;1.70;;;;;;;5.60;100.00;100747.16;1810304;79;26272;-73
2021/05/05 05:11:38;;;;;;;3.50;1.80;;;;;;;5.55;100.00;100752.59;1810297;79;26206;-73
2021/05/05 05:14:08;;;;;;;3.30;1.67;;;;;;;5.50;100.00;100756.11;1810203;79;26657;-74
2021/05/05 05:16:37;;;;;;;5.27;2.00;;;;;;;5.56;100.00;100754.27;1779674;79;26744;-73
2021/05/05 05:19:07;;;;;;;4.27;1.80;;;;;;;5.60;100.00;100759.56;1785445;80;26288;-73
2021/05/05 05:21:37;;;;;;;3.87;2.00;;;;;;;5.67;100.00;100756.60;1781744;80;26653;-73
2021/05/05 05:24:09;;;;;;;3.80;1.40;;;;;;;5.61;100.00;100751.56;1785552;80;26238;-73
2021/05/05 05:26:39;;;;;;;3.73;1.87;;;;;;;5.66;100.00;100753.01;1785359;80;26634;-73
2021/05/05 05:29:09;;;;;;;2.87;1.57;;;;;;;5.68;100.00;100748.09;1785571;80;26276;-73
2021/05/05 05:31:39;;;;;;;6.27;1.73;;;;;;;5.74;100.00;100753.94;1785605;80;26230;-73
2021/05/05 05:34:09;;;;;;;2.53;1.53;;;;;;;5.80;100.00;100747.95;1785835;80;26674;-73
2021/05/05 05:36:39;;;;;;;3.10;1.57;;;;;;;5.88;100.00;100755.81;1785722;80;26328;-73
2021/05/05 05:39:11;;;;;;;5.90;1.57;;;;;;;5.93;100.00;100759.47;1785698;80;26665;-73
2021/05/05 05:41:40;;;;;;;2.40;1.20;;;;;;;5.96;100.00;100769.14;1785528;80;26211;-73
2021/05/05 05:44:10;;;;;;;2.30;1.20;;;;;;;5.95;100.00;100769.68;1785568;80;26670;-73
2021/05/05 05:46:40;;;;;;;3.57;1.60;;;;;;;6.02;100.00;100775.56;1785489;80;26262;-73
2021/05/05 05:49:11;;;;;;;2.90;1.57;;;;;;;5.98;100.00;100782.13;1785577;80;26222;-73
2021/05/05 05:51:41;;;;;;;3.40;1.47;;;;;;;6.03;100.00;100787.72;1785646;80;26669;-72
2021/05/05 05:54:11;;;;;;;3.60;2.00;;;;;;;6.15;100.00;100791.71;1785556;80;26214;-72
2021/05/05 05:56:41;;;;;;;2.80;1.57;;;;;;;6.10;100.00;100793.02;1785588;80;26292;-72
2021/05/05 05:59:10;;;;;;;3.17;1.37;;;;;;;6.14;100.00;100795.55;1785525;80;26226;-72
2021/05/05 06:01:40;;;;;;;3.63;1.50;;;;;;;6.17;100.00;100789.52;1785414;80;26626;-73
2021/05/05 06:04:10;;;;;;;3.00;1.30;;;;;;;6.15;100.00;100791.17;1785448;80;26280;-73
2021/05/05 06:06:40;;;;;;;2.33;1.33;;;;;;;6.14;100.00;100797.77;1785556;80;26215;-73
2021/05/05 06:09:10;;;;;;;3.20;1.67;;;;;;;6.21;100.00;100797.02;1785791;80;26273;-73
2021/05/05 06:11:40;;;;;;;3.93;1.20;;;;;;;6.30;100.00;100796.02;1785570;80;26775;-74
2021/05/05 06:14:09;;;;;;;2.70;1.50;;;;;;;6.31;100.00;100798.52;1785440;80;26676;-73
2021/05/05 06:16:40;;;;;;;3.53;1.40;;;;;;;6.38;100.00;100796.93;1782812;80;26756;-73
2021/05/05 06:19:10;;;;;;;2.20;1.43;;;;;;;6.34;100.00;100805.44;1777132;80;26215;-73
2021/05/05 06:21:40;;;;;;;4.00;1.60;;;;;;;6.37;100.00;100806.32;1776903;81;26207;-74
2021/05/05 06:24:10;;;;;;;2.20;1.20;;;;;;;6.49;100.00;100808.38;1776916;81;26275;-74
2021/05/05 06:26:40;;;;;;;2.90;1.23;;;;;;;6.52;100.00;100816.13;1777072;80;26716;-74
2021/05/05 06:29:10;;;;;;;1.47;1.30;;;;;;;6.59;100.00;100809.85;1777085;81;26215;-73
2021/05/05 06:31:40;;;;;;;2.43;1.30;;;;;;;6.60;100.00;100815.66;1777046;81;26298;-75
2021/05/05 06:34:11;;;;;;;5.30;1.43;;;;;;;6.58;100.00;100815.65;1777029;81;26207;-72
2021/05/05 06:36:41;;;;;;;2.80;1.57;;;;;;;6.60;100.00;100813.45;1777975;80;26304;-72
2021/05/05 06:39:11;;;;;;;2.17;1.23;;;;;;;6.67;100.00;100827.35;1777182;80;26626;-74
2021/05/05 06:41:42;;;;;;;2.07;1.30;;;;;;;6.64;100.00;100818.73;1777139;81;26211;-73
2021/05/05 06:44:12;;;;;;;3.33;1.40;;;;;;;6.76;100.00;100832.66;1777026;81;26685;-72
2021/05/05 06:46:43;;;;;;;2.13;1.20;;;;;;;6.85;100.00;100831.10;1777032;81;26293;-73
2021/05/05 06:49:13;;;;;;;4.07;1.80;;;;;;;6.82;100.00;100831.63;1777028;81;26663;-74
2021/05/05 06:51:44;;;;;;;2.70;1.63;;;;;;;6.83;100.00;100834.69;1777134;80;26366;-73
2021/05/05 06:54:13;;;;;;;2.77;1.40;;;;;;;6.95;100.00;100835.89;1776993;81;26264;-74
2021/05/05 06:56:43;;;;;;;3.47;1.40;;;;;;;6.96;100.00;100836.19;1776887;81;26669;-75
2021/05/05 06:59:13;;;;;;;3.03;1.93;;;;;;;7.02;100.00;100837.89;1777102;80;26285;-73
2021/05/05 07:01:43;;;;;;;4.17;1.70;;;;;;;7.10;100.00;100844.31;1777058;81;26211;-74
2021/05/05 07:04:13;;;;;;;3.90;1.57;;;;;;;7.13;100.00;100847.11;1777122;80;26642;-73
2021/05/05 07:06:42;;;;;;;3.17;1.57;;;;;;;7.23;100.00;100854.12;1777043;80;26226;-73
2021/05/05 07:09:13;;;;;;;3.17;1.70;;;;;;;7.25;100.00;100858.81;1776998;81;26666;-72
2021/05/05 07:11:43;;;;;;;1.60;1.43;;;;;;;7.36;100.00;100868.05;1777012;80;26681;-72
2021/05/05 07:14:13;;;;;;;2.00;1.43;;;;;;;7.40;100.00;100870.56;1777121;80;26708;-75
2021/05/05 07:16:43;;;;;;;2.53;1.50;;;;;;;7.54;100.00;100870.38;1773753;81;26328;-74
2021/05/05 07:19:13;;;;;;;2.73;1.67;;;;;;;7.58;100.00;100882.02;1763732;81;26223;-73
2021/05/05 07:21:43;;;;;;;3.33;1.67;;;;;;;7.61;100.00;100883.44;1777013;81;26230;-74
2021/05/05 07:24:13;;;;;;;2.80;1.73;;;;;;;7.75;100.00;100882.70;1776866;81;26301;-75
2021/05/05 07:26:43;;;;;;;2.20;1.80;;;;;;;7.78;100.00;100884.13;1777165;81;26235;-74
2021/05/05 07:29:12;;;;;;;3.13;1.60;;;;;;;7.93;100.00;100877.30;1777104;80;26226;-74
2021/05/05 07:31:42;;;;;;;4.03;1.63;;;;;;;8.18;100.00;100877.44;1776937;81;26285;-76
2021/05/05 07:34:14;;;;;;;4.23;2.00;;;;;;;8.42;100.00;100877.03;1777130;81;26670;-73
2021/05/05 07:36:47;;;;;;;3.53;1.60;;;;;;;8.51;100.00;100875.42;1777112;80;26289;-72
2021/05/05 07:39:42;;;;;;;3.07;1.90;;;;;;;8.51;100.00;100871.27;1732615;83;26661;-72
2021/05/05 07:42:28;;;;;;;4.80;2.27;;;;;;;8.83;100.00;100871.08;1721033;82;26214;-71
2021/05/05 07:47:39;;;;;;;2.53;1.60;;;;;;;9.32;100.00;100872.27;1721668;83;26254;-73
2021/05/05 07:50:12;;;;;;;2.50;1.80;;;;;;;9.36;100.00;100879.48;1721863;83;26328;-73
2021/05/05 07:52:42;;;;;;;3.67;1.70;;;;;;;9.63;100.00;100869.50;1721841;83;26234;-72
2021/05/05 07:55:12;;;;;;;4.23;1.77;;;;;;;9.66;100.00;100873.09;1721546;83;26231;-73
2021/05/05 07:57:43;;;;;;;1.50;1.30;;;;;;;9.82;100.00;100874.73;1721743;83;26241;-72
2021/05/05 08:00:14;;;;;;;2.87;1.40;;;;;;;10.04;100.00;100875.25;1721540;83;26752;-72
2021/05/05 08:02:44;;;;;;;2.00;1.20;;;;;;;10.34;100.00;100868.81;1721665;83;26296;-72
2021/05/05 08:05:14;;;;;;;2.40;1.33;;;;;;;10.34;100.00;100876.59;1721868;83;26326;-72
2021/05/05 08:07:44;;;;;;;2.17;1.30;;;;;;;10.45;100.00;100878.20;1721942;83;26779;-73
2021/05/05 08:10:13;;;;;;;3.23;1.03;;;;;;;10.58;100.00;100878.14;1721794;83;26232;-73
2021/05/05 08:12:43;;;;;;;3.13;1.30;;;;;;;10.56;100.00;100877.61;1726582;83;26233;-73
2021/05/05 08:15:15;;;;;;;2.60;1.20;;;;;;;10.76;100.00;100873.34;1748151;81;26675;-73
2021/05/05 08:17:46;;;;;;;2.80;1.97;;;;;;;11.01;100.00;100879.30;1729790;82;26285;-73
2021/05/05 08:20:17;;;;;;;2.87;1.40;;;;;;;10.89;100.00;100877.44;1729896;83;26676;-73
2021/05/05 08:22:46;;;;;;;2.60;1.17;;;;;;;10.70;100.00;100875.86;1729879;83;26649;-73
2021/05/05 08:25:16;;;;;;;1.33;1.03;;;;;;;10.39;100.00;100887.69;1729904;83;26245;-72
2021/05/05 08:27:46;;;;;;;1.77;1.17;;;;;;;10.49;100.00;100882.06;1730621;81;26681;-72
2021/05/05 08:30:18;;;;;;;3.27;1.30;;;;;;;10.85;100.00;100883.30;1729649;83;26315;-73
2021/05/05 08:32:47;;;;;;;2.50;1.30;;;;;;;10.73;100.00;100881.42;1729885;83;26225;-72
2021/05/05 08:35:18;;;;;;;2.03;1.50;;;;;;;11.04;100.00;100888.45;1730848;81;26773;-73
2021/05/05 08:37:49;;;;;;;2.03;1.30;;;;;;;10.86;100.00;100885.80;1729990;82;26339;-73
2021/05/05 08:40:21;;;;;;;1.70;1.30;;;;;;;11.03;100.00;100884.59;1743792;82;26320;-73
2021/05/05 08:42:51;;;;;;;3.37;1.13;;;;;;;11.08;100.00;100878.41;1777125;80;26666;-72
2021/05/05 08:45:23;;;;;;;2.00;1.20;;;;;;;11.24;100.00;100877.77;1777024;81;26223;-75
2021/05/05 08:47:55;;;;;;;1.97;1.40;;;;;;;11.45;100.00;100879.28;1777082;81;26296;-75
2021/05/05 08:50:28;;;;;;;2.43;1.10;;;;;;;11.16;100.00;100881.17;1777100;80;26243;-75
2021/05/05 08:52:59;;;;;;;1.73;1.30;;;;;;;11.25;100.00;100887.78;1777060;81;26305;-74
2021/05/05 08:55:31;;;;;;;2.93;1.00;;;;;;;10.91;100.00;100889.91;1777035;81;26760;-73
2021/05/05 08:58:01;;;;;;;1.90;1.30;;;;;;;11.05;100.00;100895.67;1777060;81;26290;-73
2021/05/05 09:00:35;;;;;;;2.47;1.43;;;;;;;10.90;100.00;100889.67;1777168;80;26219;-74
2021/05/05 09:03:07;;;;;;;2.67;1.30;;;;;;;10.95;100.00;100895.76;1777167;81;26670;-74
2021/05/05 09:05:58;;;;;;;2.53;1.27;;;;;;;11.32;100.00;100899.40;1777135;80;26281;-73
2021/05/05 09:08:30;;;;;;;1.57;0.90;;;;;;;11.64;100.00;100896.91;1776993;80;26757;-73
2021/05/05 09:11:03;;;;;;;1.57;1.10;;;;;;;11.84;100.00;100894.00;1777063;81;26270;-73
2021/05/05 09:13:53;;;;;;;2.60;0.97;;;;;;;11.58;100.00;100902.81;1777035;81;26297;-74
2021/05/05 09:16:26;;;;;;;3.90;1.33;;;;;;;11.27;100.00;100907.77;1777110;81;26630;-75
2021/05/05 09:19:02;;;;;;;2.20;1.10;;;;;;;11.69;100.00;100906.61;1776992;81;26713;-75
2021/05/05 09:21:44;;;;;;;1.63;1.20;;;;;;;11.38;100.00;100910.19;1777124;81;26223;-74
2021/05/05 09:24:22;;;;;;;2.77;1.20;;;;;;;11.51;100.00;100913.45;1777063;80;26223;-74
2021/05/05 09:26:55;;;;;;;3.67;1.57;;;;;;;11.20;100.00;100913.67;1776901;81;26667;-74
2021/05/05 09:29:39;;;;;;;2.00;1.13;;;;;;;11.05;100.00;100912.36;1777613;80;26195;-74
2021/05/05 09:32:11;;;;;;;1.40;1.07;;;;;;;11.46;100.00;100916.27;1777106;81;26378;-75
2021/05/05 09:34:41;;;;;;;2.47;1.07;;;;;;;12.00;100.00;100911.94;1777329;80;26337;-74
2021/05/05 09:37:13;;;;;;;1.10;0.87;;;;;;;11.98;100.00;100917.78;1777424;80;26662;-74
2021/05/05 09:39:43;;;;;;;1.67;1.00;;;;;;;12.02;100.00;100914.71;1777122;80;26276;-74
2021/05/05 09:42:27;;;;;;;2.57;1.37;;;;;;;11.93;100.00;100914.23;1777040;81;26682;-73
2021/05/05 09:44:59;;;;;;;1.30;1.00;;;;;;;12.62;100.00;100918.75;1777009;81;26657;-73
2021/05/05 09:47:46;;;;;;;1.23;1.00;;;;;;;12.41;100.00;100910.95;1777018;81;26227;-73
2021/05/05 09:50:30;;;;;;;2.10;1.10;;;;;;;12.16;100.00;100921.78;1777005;81;26282;-74
2021/05/05 09:53:24;;;;;;;1.90;1.10;;;;;;;11.94;100.00;100933.41;1777958;80;26708;-75
2021/05/05 09:56:13;;;;;;;3.57;1.60;;;;;;;12.21;100.00;100937.89;1777013;81;26281;-74
2021/05/05 09:58:44;;;;;;;1.93;1.10;;;;;;;12.38;100.00;100933.25;1777050;81;26657;-74
2021/05/05 10:01:21;;;;;;;4.73;1.63;;;;;;;12.14;100.00;100929.06;1777474;80;26669;-75
2021/05/05 10:03:50;;;;;;;3.03;1.13;;;;;;;12.40;100.00;100931.58;1776747;81;26207;-74
2021/05/05 10:06:32;;;;;;;1.17;0.73;;;;;;;12.32;100.00;100924.11;1778135;80;26297;-74
2021/05/05 10:09:05;;;;;;;2.10;0.90;;;;;;;12.05;100.00;100929.42;1775993;80;26223;-75
2021/05/05 10:11:37;;;;;;;2.10;0.90;;;;;;;11.60;100.00;100935.34;1777785;80;26724;-75
2021/05/05 10:14:09;;;;;;;2.57;0.90;;;;;;;11.43;100.00;100934.35;1765425;80;26669;-74
2021/05/05 10:16:41;;;;;;;1.90;0.90;;;;;;;11.84;100.00;100929.34;1777600;81;26310;-74
2021/05/05 10:19:15;;;;;;;2.60;1.00;;;;;;;12.19;100.00;100928.98;1776806;81;26274;-74
2021/05/05 10:21:48;;;;;;;1.47;1.03;;;;;;;11.85;100.00;100927.64;1777232;80;26693;-74
2021/05/05 10:24:19;;;;;;;1.70;0.87;;;;;;;11.72;100.00;100930.29;1777316;81;26219;-75
2021/05/05 10:26:50;;;;;;;2.73;1.20;;;;;;;11.87;100.00;100935.71;1777113;81;26646;-76
2021/05/05 10:29:20;;;;;;;1.60;0.83;;;;;;;12.29;100.00;100942.81;1777326;80;26219;-74
2021/05/05 10:31:52;;;;;;;1.03;0.80;;;;;;;12.61;100.00;100937.19;1777092;81;26227;-74
2021/05/05 10:34:26;;;;;;;3.57;1.40;;;;;;;12.50;100.00;100935.63;1776953;81;26281;-75
2021/05/05 10:36:59;;;;;;;0.83;0.80;;;;;;;12.85;100.00;100941.34;1777047;80;26304;-75
2021/05/05 10:39:47;;;;;;;3.27;1.13;;;;;;;12.63;100.00;100946.89;1777199;80;26690;-75
2021/05/05 10:42:21;;;;;;;1.50;1.10;;;;;;;12.77;100.00;100942.83;1777094;81;26215;-74
2021/05/05 10:44:53;;;;;;;2.00;0.97;;;;;;;12.84;100.00;100935.48;1777097;81;26218;-75
2021/05/05 10:47:29;;;;;;;2.50;1.00;;;;;;;12.57;100.00;100945.31;1777021;81;26690;-75
2021/05/05 10:50:16;;;;;;;0.83;0.80;;;;;;;12.67;100.00;100942.39;1776966;81;26317;-74
2021/05/05 10:53:07;;;;;;;1.70;0.80;;;;;;;12.72;100.00;100940.11;1776953;80;26759;-75
2021/05/05 10:55:50;;;;;;;1.83;1.07;;;;;;;12.82;100.00;100941.38;1777403;80;26231;-73
2021/05/05 10:58:24;;;;;;;2.00;0.80;;;;;;;12.30;100.00;100938.91;1777275;80;26219;-74
2021/05/05 11:01:06;;;;;;;1.37;0.80;;;;;;;12.36;100.00;100945.27;1776939;81;26654;-74
2021/05/05 11:04:07;;;;;;;1.27;0.90;;;;;;;12.93;100.00;100936.48;1776983;81;26226;-75
2021/05/05 11:06:57;;;;;;;1.97;0.90;;;;;;;12.77;100.00;100935.86;1776963;81;26293;-74
2021/05/05 11:09:46;;;;;;;1.30;0.93;;;;;;;12.60;100.00;100940.53;1777077;81;26223;-73
2021/05/05 11:12:50;;;;;;;2.00;0.90;;;;;;;12.20;100.00;100946.53;1777038;81;26207;-74
2021/05/05 11:15:21;;;;;;;3.63;1.17;;;;;;;12.13;100.00;100939.92;1776959;80;26223;-74
2021/05/05 11:17:51;;;;;;;0.90;0.80;;;;;;;12.05;100.00;100942.52;1747391;81;26221;-76
2021/05/05 11:20:42;;;;;;;1.80;0.93;;;;;;;11.98;100.00;100935.08;1731101;81;26787;-75
2021/05/05 11:23:14;;;;;;;1.20;1.10;;;;;;;11.89;100.00;100936.82;1777342;80;26760;-75
2021/05/05 11:25:43;;;;;;;1.90;1.20;;;;;;;12.26;100.00;100942.02;1748696;80;26754;-75
2021/05/05 11:28:13;;;;;;;1.10;0.80;;;;;;;12.67;100.00;100935.98;1730272;82;26680;-75
2021/05/05 11:30:53;;;;;;;0.70;0.70;;;;;;;12.82;100.00;100934.41;1730074;83;26238;-75
2021/05/05 11:33:22;;;;;;;0.87;0.80;;;;;;;12.74;100.00;100930.89;1721838;83;26399;-75
2021/05/05 11:35:53;;;;;;;2.20;1.00;;;;;;;12.72;100.00;100924.21;1721752;83;26384;-75
2021/05/05 11:38:25;;;;;;;2.50;1.27;;;;;;;12.82;100.00;100928.00;1721653;83;26355;-75
2021/05/05 11:41:05;;;;;;;1.80;0.90;;;;;;;12.67;100.00;100928.45;1721877;83;26249;-73
2021/05/05 11:43:35;;;;;;;1.00;0.70;;;;;;;12.79;100.00;100928.85;1721895;83;26226;-75
2021/05/05 11:46:06;;;;;;;1.77;0.77;;;;;;;12.62;96.17;100927.11;1721891;83;26762;-75